createdAt,value
2023-01-29T00:02:03.901Z,10.45
2023-01-29T00:12:05.986Z,11.13
2023-01-29T00:22:09.296Z,8.77
2023-01-29T00:32:11.315Z,9.85
2023-01-29T00:42:14.688Z,10.25
2023-01-29T00:52:16.659Z,11.38
2023-01-29T01:02:20.732Z,12.18
2023-01-29T01:12:22.745Z,12.75
2023-01-29T01:22:26.027Z,14.25
2023-01-29T01:32:28.502Z,13.20
2023-01-29T01:42:32.041Z,14.30
2023-01-29T01:52:37.596Z,11.98
2023-01-29T02:02:42.157Z,14.80
2023-01-29T02:12:45.437Z,16.60
2023-01-29T02:23:14.419Z,12.52
2023-01-29T02:33:26.278Z,13.77
2023-01-29T02:43:34.072Z,12.73
2023-01-29T02:53:42.813Z,12.18
2023-01-29T03:03:50.268Z,12.68
2023-01-29T03:13:57.880Z,13.85
2023-01-29T03:24:00.637Z,11.70
2023-01-29T03:34:09.577Z,10.80
2023-01-29T03:44:17.398Z,12.77
2023-01-29T03:54:25.933Z,12.25
2023-01-29T04:04:31.878Z,12.73
2023-01-29T04:14:36.857Z,13.20
2023-01-29T04:24:38.958Z,14.30
2023-01-29T04:34:53.652Z,14.70
2023-01-29T04:45:03.665Z,15.85
2023-01-29T04:55:11.692Z,13.83
2023-01-29T05:05:16.238Z,13.18
2023-01-29T05:15:24.554Z,13.13
2023-01-29T05:25:28.598Z,13.50
2023-01-29T05:35:32.240Z,12.95
2023-01-29T05:45:34.207Z,11.95
2023-01-29T05:55:37.609Z,13.23
2023-01-29T06:05:40.156Z,12.70
2023-01-29T06:15:43.504Z,11.80
2023-01-29T06:25:45.437Z,11.73
2023-01-29T06:35:48.760Z,13.05
2023-01-29T06:45:52.247Z,10.30
2023-01-29T06:55:55.549Z,10.80
2023-01-29T07:05:57.496Z,8.15
2023-01-29T07:16:01.504Z,8.13
2023-01-29T07:26:04.726Z,7.65
2023-01-29T07:36:09.859Z,7.60
2023-01-29T07:46:11.880Z,9.23
2023-01-29T07:56:15.217Z,8.35
2023-01-29T08:06:17.187Z,9.57
2023-01-29T08:16:20.546Z,7.53
2023-01-29T08:26:22.508Z,6.68
2023-01-29T08:36:25.804Z,6.82
2023-01-29T08:46:27.979Z,7.00
2023-01-29T08:56:31.294Z,7.05
2023-01-29T09:06:52.092Z,7.88
2023-01-29T09:26:57.361Z,6.78
2023-01-29T09:37:12.625Z,7.70
2023-01-29T10:09:43.860Z,6.75
2023-01-29T10:20:06.421Z,7.90
2023-01-29T10:30:30.752Z,6.65
2023-01-29T10:40:39.967Z,7.40
2023-01-29T10:50:49.334Z,8.15
2023-01-29T11:00:52.270Z,7.95
2023-01-29T11:11:06.689Z,8.40
2023-01-29T11:21:08.811Z,7.05
2023-01-29T11:42:22.860Z,7.25
2023-01-29T11:52:27.301Z,6.88
2023-01-29T12:02:34.956Z,6.88
2023-01-29T12:12:41.434Z,6.93
2023-01-29T12:22:50.697Z,7.28
2023-01-29T12:32:59.803Z,7.45
2023-01-29T12:43:12.350Z,5.35
2023-01-29T12:53:26.163Z,4.30
2023-01-29T13:03:39.501Z,4.13
2023-01-29T13:25:06.336Z,4.00
2023-01-29T13:35:14.065Z,5.53
2023-01-29T13:45:21.741Z,5.75
2023-01-29T14:27:03.320Z,2.00
2023-01-29T14:37:21.978Z,1.65
2023-01-29T14:48:11.953Z,1.50
2023-01-29T14:58:18.404Z,2.08
2023-01-29T15:08:26.133Z,2.47
2023-01-29T15:18:34.879Z,1.73
2023-01-29T15:28:37.648Z,1.58
2023-01-29T15:38:40.989Z,1.95
2023-01-29T15:48:44.527Z,1.60
2023-01-29T15:58:49.675Z,1.80
2023-01-29T16:08:53.871Z,1.58
2023-01-29T16:19:00.870Z,2.30
2023-01-29T16:40:15.922Z,1.77
2023-01-29T16:50:26.512Z,1.73
2023-01-29T17:00:31.053Z,1.10
2023-01-29T17:10:33.659Z,1.55
2023-01-29T17:20:36.952Z,1.80
2023-01-29T17:30:39.174Z,1.95
2023-01-29T17:40:45.147Z,1.48
2023-01-29T17:50:49.407Z,1.60
2023-01-29T18:00:53.720Z,2.10
2023-01-29T18:10:55.733Z,1.88
2023-01-29T18:32:00.516Z,1.05
2023-01-29T18:42:02.505Z,0.98
2023-01-29T18:52:06.712Z,1.40
2023-01-29T19:02:12.812Z,1.20
2023-01-29T19:12:16.264Z,1.65
2023-01-29T19:22:18.528Z,2.10
2023-01-29T19:32:21.826Z,2.25
2023-01-29T19:42:23.902Z,1.60
2023-01-29T19:52:27.269Z,2.50
2023-01-29T20:02:29.235Z,2.20
2023-01-29T20:12:32.561Z,1.88
2023-01-29T20:22:34.522Z,2.42
2023-01-29T20:32:37.842Z,3.13
2023-01-29T20:42:39.812Z,2.67
2023-01-29T20:52:43.148Z,3.00
2023-01-29T21:02:45.170Z,3.30
2023-01-29T21:12:49.728Z,2.70
2023-01-29T21:22:51.646Z,2.22
2023-01-29T21:32:54.991Z,1.95
2023-01-29T21:42:57.019Z,2.70
2023-01-29T21:53:00.634Z,2.95
2023-01-29T22:03:02.639Z,2.95
2023-01-29T22:13:06.019Z,3.30
2023-01-29T22:23:08.573Z,3.08
2023-01-29T22:33:12.039Z,2.58
2023-01-29T22:43:13.984Z,2.47
2023-01-29T22:53:17.314Z,5.32
2023-01-29T23:03:19.248Z,2.70
2023-01-29T23:13:22.577Z,2.55
2023-01-29T23:23:24.547Z,3.10
2023-01-29T23:33:27.850Z,2.50
2023-01-29T23:43:30.407Z,3.47
2023-01-29T23:53:33.708Z,3.05
